Time;durP1;ratioP1;P1;durP2;ratioP2;P2;SDS_P1;SDS_P2;PMS_P1;PMS_P2;Temp;Humidity;BMP_temperature;BMP_pressure;BME280_temperature;BME280_humidity;BME280_pressure;Samples;Min_cycle;Max_cycle;Signal;HPM_P1;HPM_P2
2021/11/03 00:00:17;;;;;;;;;;;;;;;8.06;80.98;97148.98;1708748;83;20261;-86
2021/11/03 00:02:44;;;;;;;;;;;;;;;8.15;81.01;97147.41;1734124;81;20225;-86
2021/11/03 00:05:12;;;;;;;;;;;;;;;8.18;81.04;97139.36;1736992;81;20223;-86
2021/11/03 00:07:38;;;;;;;;;;;;;;;8.14;81.07;97142.67;1742785;81;22950;-87
2021/11/03 00:10:12;;;;;;;;;;;;;;;8.13;81.11;97142.81;1719710;82;26014;-86
2021/11/03 00:12:38;;;;;;;;;;;;;;;8.09;81.15;97143.99;1707132;82;25236;-86
2021/11/03 00:15:04;;;;;;;;;;;;;;;8.08;81.16;97144.94;1734922;81;20378;-86
2021/11/03 00:17:30;;;;;;;;;;;;;;;8.12;81.17;97150.28;1739418;81;24779;-86
2021/11/03 00:19:56;;;;;;;;;;;;;;;8.14;81.20;97149.66;1736698;81;21935;-86
2021/11/03 00:22:22;;;;;;;;;;;;;;;8.15;81.21;97154.75;1722639;82;21143;-87
2021/11/03 00:24:48;;;;;;;;;;;;;;;8.14;81.22;97147.05;1739994;81;24542;-86
2021/11/03 00:27:14;;;;;;;;;;;;;;;8.19;81.24;97147.51;1741053;81;20824;-86
2021/11/03 00:29:40;;;;;;;;;;;;;;;8.16;81.27;97152.51;1740741;81;24807;-86
2021/11/03 00:32:07;;;;;;;;;;;;;;;8.22;81.27;97165.52;1740181;81;20216;-86
2021/11/03 00:34:34;;;;;;;;;;;;;;;8.26;81.28;97171.66;1707884;83;26791;-86
2021/11/03 00:37:00;;;;;;;;;;;;;;;8.33;81.31;97172.03;1736646;81;24414;-86
2021/11/03 00:39:26;;;;;;;;;;;;;;;8.44;81.34;97171.16;1741543;81;20274;-86
2021/11/03 00:41:52;;;;;;;;;;;;;;;8.49;81.39;97172.91;1735139;81;25517;-86
2021/11/03 00:44:19;;;;;;;;;;;;;;;8.53;81.42;97180.83;1740569;81;22003;-86
2021/11/03 00:46:45;;;;;;;;;;;;;;;8.55;81.43;97182.38;1741526;81;25950;-86
2021/11/03 00:49:11;;;;;;;;;;;;;;;8.54;81.42;97179.41;1741929;81;20319;-86
2021/11/03 00:51:37;;;;;;;;;;;;;;;8.56;81.40;97182.73;1739664;81;20279;-86
2021/11/03 00:54:03;;;;;;;;;;;;;;;8.55;81.35;97181.55;1727051;80;20200;-86
2021/11/03 00:56:30;;;;;;;;;;;;;;;8.49;81.32;97180.26;1779309;79;22081;-86
2021/11/03 00:58:56;;;;;;;;;;;;;;;8.48;81.30;97185.12;1743910;80;27012;-86
2021/11/03 01:01:22;;;;;;;;;;;;;;;8.53;81.27;97184.27;1775810;79;24596;-86
2021/11/03 01:03:48;;;;;;;;;;;;;;;8.59;81.26;97195.50;1777879;79;20229;-86
2021/11/03 01:06:14;;;;;;;;;;;;;;;8.60;81.23;97197.16;1777098;79;20310;-85
2021/11/03 01:08:40;;;;;;;;;;;;;;;8.61;81.18;97197.52;1780357;79;22049;-85
2021/11/03 01:11:06;;;;;;;;;;;;;;;8.61;81.16;97194.91;1737732;81;26366;-85
2021/11/03 01:13:32;;;;;;;;;;;;;;;8.58;81.12;97192.54;1756807;80;24518;-85
2021/11/03 01:16:01;;;;;;;;;;;;;;;8.52;81.06;97194.81;1757493;80;20268;-85
2021/11/03 01:18:28;;;;;;;;;;;;;;;8.43;81.01;97192.95;1750749;80;24975;-86
2021/11/03 01:20:55;;;;;;;;;;;;;;;8.43;80.99;97190.36;1757804;80;22072;-86
2021/11/03 01:23:21;;;;;;;;;;;;;;;8.37;80.96;97194.28;1758017;80;25934;-85
2021/11/03 01:25:48;;;;;;;;;;;;;;;8.40;80.96;97195.33;1757416;81;24447;-85
2021/11/03 01:28:14;;;;;;;;;;;;;;;8.44;80.93;97195.45;1767755;79;20204;-85
2021/11/03 01:30:40;;;;;;;;;;;;;;;8.47;80.90;97194.36;1779013;79;24807;-85
2021/11/03 01:33:06;;;;;;;;;;;;;;;8.54;80.89;97196.83;1741980;80;21998;-85
2021/11/03 01:35:32;;;;;;;;;;;;;;;8.54;80.91;97204.18;1779326;79;21044;-85
2021/11/03 01:37:59;;;;;;;;;;;;;;;8.61;80.90;97198.00;1744297;80;24526;-85
2021/11/03 01:40:27;;;;;;;;;;;;;;;8.63;80.89;97201.28;1773147;79;20157;-85
2021/11/03 01:42:53;;;;;;;;;;;;;;;8.58;80.87;97194.31;1779671;79;26761;-86
2021/11/03 01:45:22;;;;;;;;;;;;;;;8.58;80.83;97194.31;1749213;80;21970;-86
2021/11/03 01:47:50;;;;;;;;;;;;;;;8.62;80.79;97195.75;1752898;80;26876;-86
2021/11/03 01:50:26;;;;;;;;;;;;;;;8.61;80.77;97192.30;1757019;80;24522;-85
2021/11/03 01:53:06;;;;;;;;;;;;;;;8.52;80.72;97194.34;1775865;79;20209;-85
2021/11/03 01:55:33;;;;;;;;;;;;;;;8.43;80.65;97195.09;1772591;79;24801;-85
2021/11/03 01:58:04;;;;;;;;;;;;;;;8.36;80.58;97194.75;1761911;80;22122;-86
2021/11/03 02:00:31;;;;;;;;;;;;;;;8.26;80.53;97192.98;1773892;79;25835;-85
2021/11/03 02:03:05;;;;;;;;;;;;;;;8.16;80.46;97185.55;1759664;80;24500;-86
2021/11/03 02:05:31;;;;;;;;;;;;;;;8.16;80.42;97192.90;1769954;79;20249;-86
2021/11/03 02:07:58;;;;;;;;;;;;;;;8.15;80.40;97195.14;1758763;80;20511;-86
2021/11/03 02:10:24;;;;;;;;;;;;;;;8.17;80.37;97200.24;1758718;80;21316;-86
2021/11/03 02:12:50;;;;;;;;;;;;;;;8.18;80.36;97192.78;1761946;80;26571;-86
2021/11/03 02:15:17;;;;;;;;;;;;;;;8.16;80.36;97191.59;1761513;80;20312;-86
2021/11/03 02:17:43;;;;;;;;;;;;;;;8.18;80.35;97188.37;1760472;80;20211;-86
2021/11/03 02:20:17;;;;;;;;;;;;;;;8.21;80.35;97190.75;1759292;80;24892;-86
2021/11/03 02:22:47;;;;;;;;;;;;;;;8.17;80.32;97181.53;1773278;79;22048;-86
2021/11/03 02:25:15;;;;;;;;;;;;;;;8.16;80.32;97185.08;1744518;80;26945;-86
2021/11/03 02:27:43;;;;;;;;;;;;;;;8.17;80.30;97189.34;1765596;79;24516;-86
2021/11/03 02:30:11;;;;;;;;;;;;;;;8.17;80.27;97191.13;1758874;80;20221;-86
2021/11/03 02:32:37;;;;;;;;;;;;;;;8.16;80.23;97194.67;1757187;80;24973;-86
2021/11/03 02:35:11;;;;;;;;;;;;;;;8.16;80.23;97188.98;1762910;79;22041;-86
2021/11/03 02:37:40;;;;;;;;;;;;;;;8.16;80.21;97187.69;1760113;80;26091;-85
2021/11/03 02:40:13;;;;;;;;;;;;;;;8.13;80.17;97185.81;1771877;79;25278;-85
2021/11/03 02:42:42;;;;;;;;;;;;;;;8.08;80.16;97179.64;1761910;80;20181;-85
2021/11/03 02:45:09;;;;;;;;;;;;;;;8.08;80.12;97187.45;1758741;80;24865;-85
2021/11/03 02:47:35;;;;;;;;;;;;;;;8.03;80.08;97183.56;1772801;79;21993;-86
2021/11/03 02:50:02;;;;;;;;;;;;;;;7.95;80.03;97190.23;1759807;80;21157;-85
2021/11/03 02:52:28;;;;;;;;;;;;;;;7.91;79.96;97182.75;1773389;79;24397;-85
2021/11/03 02:54:54;;;;;;;;;;;;;;;7.89;79.92;97184.20;1773968;79;20326;-85
2021/11/03 02:57:20;;;;;;;;;;;;;;;7.94;79.88;97184.66;1741871;81;20773;-86
2021/11/03 02:59:46;;;;;;;;;;;;;;;7.94;79.87;97177.31;1742167;81;22750;-86
2021/11/03 03:02:13;;;;;;;;;;;;;;;7.91;79.86;97180.98;1741942;81;26790;-85
2021/11/03 03:04:40;;;;;;;;;;;;;;;7.91;79.84;97180.14;1774270;79;23841;-85
2021/11/03 03:07:08;;;;;;;;;;;;;;;7.88;79.82;97182.53;1774417;79;20263;-87
2021/11/03 03:09:34;;;;;;;;;;;;;;;7.87;79.82;97192.59;1774074;79;24769;-87
2021/11/03 03:12:03;;;;;;;;;;;;;;;7.86;79.79;97191.41;1791645;78;20280;-87
2021/11/03 03:14:30;;;;;;;;;;;;;;;7.81;79.74;97189.16;1756648;80;26722;-87
2021/11/03 03:16:59;;;;;;;;;;;;;;;7.75;79.71;97183.13;1754195;79;24372;-86
2021/11/03 03:19:25;;;;;;;;;;;;;;;7.73;79.67;97189.42;1758337;80;20304;-86
2021/11/03 03:21:51;;;;;;;;;;;;;;;7.70;79.64;97189.64;1762999;80;25005;-86
2021/11/03 03:24:17;;;;;;;;;;;;;;;7.65;79.60;97191.31;1728667;80;20402;-86
2021/11/03 03:26:44;;;;;;;;;;;;;;;7.61;79.59;97186.47;1761496;80;26023;-85
2021/11/03 03:29:10;;;;;;;;;;;;;;;7.59;79.59;97193.09;1773472;79;24491;-86
2021/11/03 03:31:37;;;;;;;;;;;;;;;7.58;79.58;97196.16;1739905;81;20228;-86
2021/11/03 03:34:05;;;;;;;;;;;;;;;7.58;79.58;97200.56;1761247;80;24754;-85
2021/11/03 03:36:31;;;;;;;;;;;;;;;7.57;79.61;97192.40;1774047;79;22071;-86
2021/11/03 03:38:57;;;;;;;;;;;;;;;7.56;79.60;97193.34;1758868;80;20995;-86
2021/11/03 03:41:24;;;;;;;;;;;;;;;7.54;79.60;97196.52;1774207;79;24441;-86
2021/11/03 03:43:50;;;;;;;;;;;;;;;7.53;79.62;97196.99;1763042;80;20226;-86
2021/11/03 03:46:17;;;;;;;;;;;;;;;7.54;79.66;97199.95;1771786;79;20322;-86
2021/11/03 03:48:43;;;;;;;;;;;;;;;7.59;79.68;97210.01;1756139;80;21985;-86
2021/11/03 03:51:09;;;;;;;;;;;;;;;7.62;79.68;97207.66;1772936;79;21971;-86
2021/11/03 03:53:35;;;;;;;;;;;;;;;7.64;79.71;97210.48;1760446;79;24409;-86
2021/11/03 03:56:01;;;;;;;;;;;;;;;7.60;79.73;97210.38;1763995;79;20245;-86
2021/11/03 03:58:27;;;;;;;;;;;;;;;7.58;79.75;97213.59;1748221;80;24810;-86
2021/11/03 04:00:53;;;;;;;;;;;;;;;7.61;79.75;97212.50;1750962;80;20344;-86
2021/11/03 04:03:20;;;;;;;;;;;;;;;7.62;79.76;97210.26;1751563;80;21077;-86
2021/11/03 04:05:46;;;;;;;;;;;;;;;7.60;79.76;97212.97;1755266;80;24448;-86
2021/11/03 04:08:12;;;;;;;;;;;;;;;7.59;79.74;97223.03;1759962;80;20802;-86
2021/11/03 04:10:39;;;;;;;;;;;;;;;7.61;79.75;97223.75;1749353;80;24770;-86
2021/11/03 04:13:05;;;;;;;;;;;;;;;7.61;79.76;97224.22;1719737;82;21907;-86
2021/11/03 04:15:32;;;;;;;;;;;;;;;7.60;79.76;97227.30;1749588;80;26130;-86
2021/11/03 04:17:58;;;;;;;;;;;;;;;7.60;79.79;97223.39;1747956;80;24542;-87
2021/11/03 04:20:24;;;;;;;;;;;;;;;7.53;79.79;97226.93;1750361;80;20273;-86
2021/11/03 04:22:50;;;;;;;;;;;;;;;7.52;79.78;97227.07;1750212;80;24924;-87
2021/11/03 04:25:16;;;;;;;;;;;;;;;7.53;79.79;97222.19;1750368;80;20328;-87
2021/11/03 04:27:42;;;;;;;;;;;;;;;7.55;79.80;97225.05;1759637;80;26516;-87
2021/11/03 04:30:10;;;;;;;;;;;;;;;7.52;79.76;97222.70;1757047;80;24440;-86
2021/11/03 04:32:36;;;;;;;;;;;;;;;7.50;79.78;97227.65;1759087;80;20222;-86
2021/11/03 04:35:03;;;;;;;;;;;;;;;7.49;79.76;97228.59;1720988;81;20478;-86
2021/11/03 04:37:29;;;;;;;;;;;;;;;7.47;79.77;97229.20;1758973;80;22100;-87
2021/11/03 04:39:55;;;;;;;;;;;;;;;7.48;79.79;97230.36;1724606;81;20955;-87
2021/11/03 04:42:21;;;;;;;;;;;;;;;7.47;79.79;97228.70;1754160;80;20224;-87
2021/11/03 04:44:47;;;;;;;;;;;;;;;7.44;79.78;97234.63;1750262;80;20215;-87
2021/11/03 04:47:13;;;;;;;;;;;;;;;7.42;79.81;97232.59;1719110;81;20316;-87
2021/11/03 04:49:39;;;;;;;;;;;;;;;7.40;79.81;97239.72;1747856;80;21974;-87
2021/11/03 04:52:05;;;;;;;;;;;;;;;7.36;79.80;97239.59;1748297;80;21191;-87
2021/11/03 04:54:31;;;;;;;;;;;;;;;7.36;79.79;97242.20;1746875;80;24397;-87
2021/11/03 04:56:57;;;;;;;;;;;;;;;7.32;79.79;97240.28;1721493;81;20818;-87
2021/11/03 04:59:23;;;;;;;;;;;;;;;7.35;79.80;97238.77;1761872;79;24771;-87
2021/11/03 05:01:49;;;;;;;;;;;;;;;7.32;79.81;97231.17;1783390;79;20881;-87
2021/11/03 05:04:15;;;;;;;;;;;;;;;7.31;79.83;97230.81;1744913;80;26127;-86
2021/11/03 05:06:45;;;;;;;;;;;;;;;7.26;79.82;97230.34;1784413;79;24437;-87
2021/11/03 05:09:11;;;;;;;;;;;;;;;7.25;79.80;97232.61;1746537;80;20631;-87
2021/11/03 05:11:37;;;;;;;;;;;;;;;7.24;79.82;97228.34;1785025;79;24690;-87
2021/11/03 05:14:03;;;;;;;;;;;;;;;7.21;79.82;97226.42;1717365;82;21931;-86
2021/11/03 05:16:30;;;;;;;;;;;;;;;7.18;79.84;97231.88;1780122;79;26918;-86
2021/11/03 05:18:56;;;;;;;;;;;;;;;7.12;79.84;97236.59;1778631;79;24449;-86
2021/11/03 05:21:22;;;;;;;;;;;;;;;7.10;79.85;97227.23;1754461;80;20229;-87
2021/11/03 05:23:48;;;;;;;;;;;;;;;7.09;79.86;97238.61;1748750;80;25522;-87
2021/11/03 05:26:16;;;;;;;;;;;;;;;7.04;79.87;97240.70;1781054;79;20330;-86
2021/11/03 05:28:47;;;;;;;;;;;;;;;7.08;79.90;97246.05;1773911;79;26844;-86
2021/11/03 05:31:13;;;;;;;;;;;;;;;7.10;79.92;97250.64;1780259;79;24276;-88
2021/11/03 05:33:39;;;;;;;;;;;;;;;7.08;79.95;97245.58;1780560;79;20869;-87
2021/11/03 05:36:05;;;;;;;;;;;;;;;7.05;79.98;97248.39;1772801;79;24740;-89
2021/11/03 05:38:32;;;;;;;;;;;;;;;7.04;80.00;97250.63;1768119;79;21997;-88
2021/11/03 05:40:58;;;;;;;;;;;;;;;7.03;80.04;97254.20;1779844;79;26137;-88
2021/11/03 05:43:24;;;;;;;;;;;;;;;7.00;80.07;97250.51;1761136;79;24413;-89
2021/11/03 05:45:53;;;;;;;;;;;;;;;7.00;80.09;97250.98;1765199;79;20475;-88
2021/11/03 05:48:31;;;;;;;;;;;;;;;6.97;80.12;97252.05;1771137;79;24847;-88
2021/11/03 05:50:57;;;;;;;;;;;;;;;6.99;80.14;97248.02;1783022;79;21976;-88
2021/11/03 05:53:23;;;;;;;;;;;;;;;6.97;80.18;97250.75;1784998;79;20912;-87
2021/11/03 05:55:49;;;;;;;;;;;;;;;7.00;80.23;97254.88;1780059;79;20310;-87
2021/11/03 05:58:16;;;;;;;;;;;;;;;7.05;80.26;97254.89;1785093;79;20334;-88
2021/11/03 06:00:42;;;;;;;;;;;;;;;7.08;80.31;97259.05;1766950;79;24776;-83
2021/11/03 06:03:11;;;;;;;;;;;;;;;7.08;80.34;97259.89;1780838;79;22759;-83
2021/11/03 06:05:36;;;;;;;;;;;;;;;7.12;80.39;97259.17;1782007;79;26056;-83
2021/11/03 06:08:04;;;;;;;;;;;;;;;7.15;80.44;97254.56;1780110;79;24434;-85
2021/11/03 06:10:34;;;;;;;;;;;;;;;7.14;80.47;97254.70;1784857;79;20160;-85
2021/11/03 06:13:05;;;;;;;;;;;;;;;7.17;80.51;97261.43;1766847;80;25623;-87
2021/11/03 06:15:32;;;;;;;;;;;;;;;7.16;80.52;97256.70;1762638;79;21959;-87
2021/11/03 06:18:01;;;;;;;;;;;;;;;7.16;80.53;97265.80;1776351;79;27038;-87
2021/11/03 06:20:28;;;;;;;;;;;;;;;7.19;80.58;97272.56;1746171;80;24675;-87
2021/11/03 06:22:54;;;;;;;;;;;;;;;7.19;80.60;97277.77;1781770;79;20462;-86
2021/11/03 06:25:20;;;;;;;;;;;;;;;7.18;80.62;97274.80;1782747;79;24766;-86
2021/11/03 06:27:47;;;;;;;;;;;;;;;7.20;80.65;97278.13;1744044;80;22699;-83
2021/11/03 06:30:18;;;;;;;;;;;;;;;7.22;80.66;97280.13;1763130;79;25978;-87
2021/11/03 06:32:44;;;;;;;;;;;;;;;7.27;80.68;97283.20;1782034;79;24461;-84
2021/11/03 06:35:10;;;;;;;;;;;;;;;7.23;80.68;97286.99;1749707;80;20257;-84
2021/11/03 06:37:38;;;;;;;;;;;;;;;7.26;80.72;97287.58;1780465;79;24969;-86
2021/11/03 06:40:06;;;;;;;;;;;;;;;7.29;80.75;97288.67;1782924;79;22123;-86
2021/11/03 06:42:32;;;;;;;;;;;;;;;7.34;80.80;97293.05;1785197;79;26151;-84
2021/11/03 06:44:58;;;;;;;;;;;;;;;7.38;80.82;97295.78;1764489;79;20310;-84
2021/11/03 06:47:24;;;;;;;;;;;;;;;7.39;80.84;97294.84;1768041;79;20404;-83
2021/11/03 06:49:50;;;;;;;;;;;;;;;7.47;80.87;97298.98;1769036;79;21107;-86
2021/11/03 06:52:16;;;;;;;;;;;;;;;7.49;80.90;97298.41;1781593;79;22772;-86
2021/11/03 06:54:42;;;;;;;;;;;;;;;7.53;80.93;97294.61;1780995;79;21729;-88
2021/11/03 06:57:08;;;;;;;;;;;;;;;7.60;80.96;97297.59;1772245;79;24485;-85
2021/11/03 06:59:35;;;;;;;;;;;;;;;7.68;80.96;97297.02;1777162;79;20593;-88
2021/11/03 07:02:01;;;;;;;;;;;;;;;7.65;81.01;97288.95;1780941;79;24767;-82
2021/11/03 07:04:28;;;;;;;;;;;;;;;7.76;81.02;97304.59;1781632;79;21960;-83
2021/11/03 07:06:54;;;;;;;;;;;;;;;7.78;81.06;97304.01;1769584;79;25972;-87
2021/11/03 07:09:20;;;;;;;;;;;;;;;7.79;81.08;97305.67;1780520;79;24508;-87
2021/11/03 07:11:46;;;;;;;;;;;;;;;7.79;81.07;97308.75;1766014;79;20505;-88
2021/11/03 07:14:12;;;;;;;;;;;;;;;7.82;81.10;97304.13;1769285;79;24759;-88
2021/11/03 07:16:38;;;;;;;;;;;;;;;7.87;81.08;97308.50;1777454;79;20231;-87
2021/11/03 07:19:05;;;;;;;;;;;;;;;7.93;81.11;97311.94;1781797;79;27104;-85
2021/11/03 07:21:31;;;;;;;;;;;;;;;7.98;81.11;97305.90;1779373;79;24485;-86
2021/11/03 07:23:58;;;;;;;;;;;;;;;8.04;81.12;97311.58;1784989;79;20273;-85
2021/11/03 07:26:24;;;;;;;;;;;;;;;8.06;81.13;97310.53;1746022;80;24686;-88
2021/11/03 07:28:51;;;;;;;;;;;;;;;8.14;81.14;97316.43;1762539;80;21962;-87
2021/11/03 07:31:17;;;;;;;;;;;;;;;8.21;81.13;97313.23;1763901;80;26035;-87
2021/11/03 07:33:43;;;;;;;;;;;;;;;8.25;81.12;97317.25;1777300;79;24438;-87
2021/11/03 07:36:11;;;;;;;;;;;;;;;8.33;81.13;97318.00;1749079;80;20270;-87
2021/11/03 07:38:37;;;;;;;;;;;;;;;8.39;81.09;97316.22;1764839;80;24910;-83
2021/11/03 07:41:03;;;;;;;;;;;;;;;8.48;81.10;97323.30;1740103;80;20207;-88
2021/11/03 07:43:30;;;;;;;;;;;;;;;8.52;81.10;97319.49;1742028;80;26108;-83
2021/11/03 07:45:56;;;;;;;;;;;;;;;8.59;81.08;97330.27;1740986;80;24766;-83
2021/11/03 07:48:24;;;;;;;;;;;;;;;8.63;81.04;97327.30;1784941;79;20279;-83
2021/11/03 07:50:52;;;;;;;;;;;;;;;8.67;81.00;97333.91;1742658;81;24917;-83
2021/11/03 07:53:18;;;;;;;;;;;;;;;8.75;80.99;97332.84;1755251;80;21970;-87
2021/11/03 07:55:46;;;;;;;;;;;;;;;8.84;80.97;97333.87;1789661;78;26023;-85
2021/11/03 07:58:14;;;;;;;;;;;;;;;8.90;80.93;97335.98;1780677;79;24446;-88
2021/11/03 08:00:41;;;;;;;;;;;;;;;9.00;80.87;97327.77;1780379;79;20428;-88
2021/11/03 08:03:07;;;;;;;;;;;;;;;9.08;80.81;97332.38;1781820;79;24778;-88
2021/11/03 08:05:33;;;;;;;;;;;;;;;9.14;80.77;97334.48;1781977;79;21958;-88
2021/11/03 08:08:01;;;;;;;;;;;;;;;9.21;80.73;97331.27;1740853;81;26900;-87
2021/11/03 08:10:27;;;;;;;;;;;;;;;9.30;80.68;97328.84;1781499;79;24515;-88
2021/11/03 08:12:55;;;;;;;;;;;;;;;9.33;80.63;97330.70;1782340;79;20471;-88
2021/11/03 08:15:22;;;;;;;;;;;;;;;9.39;80.56;97335.91;1779382;79;25472;-84
2021/11/03 08:17:48;;;;;;;;;;;;;;;9.45;80.49;97335.41;1784852;79;21985;-88
2021/11/03 08:20:17;;;;;;;;;;;;;;;9.48;80.44;97335.16;1768004;79;26047;-85
2021/11/03 08:22:43;;;;;;;;;;;;;;;9.49;80.35;97327.18;1750315;80;24506;-85
2021/11/03 08:25:09;;;;;;;;;;;;;;;9.60;80.27;97334.16;1782547;79;20298;-86
2021/11/03 08:27:40;;;;;;;;;;;;;;;9.66;80.18;97334.92;1776258;79;24294;-86
2021/11/03 08:30:08;;;;;;;;;;;;;;;9.72;80.08;97328.35;1782265;79;21995;-85
2021/11/03 08:32:36;;;;;;;;;;;;;;;9.78;80.00;97336.98;1750089;80;25972;-85
2021/11/03 08:35:02;;;;;;;;;;;;;;;9.85;79.86;97335.05;1781408;79;24514;-85
2021/11/03 08:37:30;;;;;;;;;;;;;;;9.91;79.73;97330.61;1781933;79;20572;-88
2021/11/03 08:40:00;;;;;;;;;;;;;;;9.98;79.61;97327.01;1739324;80;25378;-88
2021/11/03 08:42:26;;;;;;;;;;;;;;;10.00;79.50;97332.91;1765872;79;22193;-85
2021/11/03 08:44:52;;;;;;;;;;;;;;;10.03;79.39;97326.96;1760922;79;20900;-88
2021/11/03 08:47:19;;;;;;;;;;;;;;;10.08;79.25;97317.41;1783836;79;24666;-87
2021/11/03 08:49:45;;;;;;;;;;;;;;;10.16;79.12;97323.27;1743443;79;20263;-87
2021/11/03 08:52:11;;;;;;;;;;;;;;;10.22;78.99;97317.08;1782444;79;20204;-85
2021/11/03 08:54:38;;;;;;;;;;;;;;;10.27;78.88;97326.66;1744992;80;22073;-85
2021/11/03 08:57:07;;;;;;;;;;;;;;;10.33;78.75;97321.38;1773665;79;25974;-85
2021/11/03 08:59:33;;;;;;;;;;;;;;;10.38;78.64;97317.88;1785138;79;24427;-85
2021/11/03 09:01:59;;;;;;;;;;;;;;;10.42;78.51;97322.71;1788819;77;20243;-85
2021/11/03 09:04:25;;;;;;;;;;;;;;;10.45;78.38;97310.69;1751585;80;24795;-85
2021/11/03 09:06:51;;;;;;;;;;;;;;;10.54;78.23;97322.61;1788104;79;21995;-85
2021/11/03 09:09:17;;;;;;;;;;;;;;;10.63;78.10;97323.13;1765147;79;21487;-85
2021/11/03 09:11:46;;;;;;;;;;;;;;;10.71;78.00;97321.48;1777734;79;24564;-85
2021/11/03 09:14:12;;;;;;;;;;;;;;;10.77;77.89;97320.11;1751821;80;20417;-85
2021/11/03 09:16:39;;;;;;;;;;;;;;;10.84;77.73;97331.70;1788031;79;24771;-85
2021/11/03 09:19:05;;;;;;;;;;;;;;;10.87;77.59;97330.94;1750214;80;21987;-85
2021/11/03 09:21:49;;;;;;;;;;;;;;;10.89;77.47;97322.96;1782785;79;22031;-85
2021/11/03 09:24:15;;;;;;;;;;;;;;;10.85;77.31;97329.44;1765699;79;20416;-85
2021/11/03 09:26:43;;;;;;;;;;;;;;;10.83;77.19;97321.72;1755642;80;20238;-86
2021/11/03 09:29:10;;;;;;;;;;;;;;;10.83;77.05;97331.34;1783571;79;24830;-86
2021/11/03 09:31:37;;;;;;;;;;;;;;;10.84;76.93;97328.61;1766736;79;22064;-86
2021/11/03 09:34:03;;;;;;;;;;;;;;;10.86;76.80;97327.97;1769232;79;25994;-86
2021/11/03 09:36:34;;;;;;;;;;;;;;;10.92;76.68;97330.53;1761633;79;20231;-86
2021/11/03 09:38:57;;;;;;;;;;;;;;;10.96;76.60;97330.63;1782716;79;20236;-88
2021/11/03 09:41:31;;;;;;;;;;;;;;;11.03;76.50;97321.72;1781246;79;24872;-84
2021/11/03 09:43:59;;;;;;;;;;;;;;;11.08;76.43;97319.52;1785797;79;22619;-84
2021/11/03 09:46:27;;;;;;;;;;;;;;;11.11;76.34;97321.88;1779056;79;26687;-88
2021/11/03 09:49:01;;;;;;;;;;;;;;;11.19;76.22;97319.38;1783377;79;24522;-88
2021/11/03 09:51:28;;;;;;;;;;;;;;;11.24;76.09;97319.30;1787875;79;20287;-88
2021/11/03 09:54:02;;;;;;;;;;;;;;;11.30;75.97;97309.59;1743736;80;24814;-88
2021/11/03 09:56:36;;;;;;;;;;;;;;;11.32;75.79;97310.77;1765776;79;21793;-84
2021/11/03 09:59:04;;;;;;;;;;;;;;;11.40;75.60;97317.95;1758944;79;26820;-86
2021/11/03 10:01:42;;;;;;;;;;;;;;;11.42;75.40;97323.85;1764888;79;24715;-87
2021/11/03 10:04:19;;;;;;;;;;;;;;;11.46;75.23;97322.12;1745170;80;20188;-88
2021/11/03 10:06:53;;;;;;;;;;;;;;;11.49;75.07;97330.19;1768408;79;24997;-88
2021/11/03 10:09:19;;;;;;;;;;;;;;;11.51;74.91;97326.45;1787091;79;22057;-88
2021/11/03 10:11:47;;;;;;;;;;;;;;;11.54;74.75;97321.42;1746850;80;20918;-88
2021/11/03 10:14:12;;;;;;;;;;;;;;;11.55;74.62;97322.61;1763363;79;24420;-84
2021/11/03 10:16:40;;;;;;;;;;;;;;;11.57;74.47;97325.06;1785108;79;20785;-88
2021/11/03 10:19:08;;;;;;;;;;;;;;;11.57;74.32;97322.44;1786602;79;24758;-88
2021/11/03 10:21:36;;;;;;;;;;;;;;;11.60;74.16;97319.08;1761938;79;22062;-87
2021/11/03 10:24:07;;;;;;;;;;;;;;;11.64;74.02;97312.58;1785406;79;26037;-84
2021/11/03 10:26:47;;;;;;;;;;;;;;;11.67;73.91;97308.36;1746543;80;24414;-84
2021/11/03 10:29:35;;;;;;;;;;;;;;;11.67;73.80;97307.56;1787692;79;20298;-86
2021/11/03 10:32:03;;;;;;;;;;;;;;;11.73;73.65;97306.99;1753577;80;24792;-86
2021/11/03 10:34:37;;;;;;;;;;;;;;;11.74;73.51;97305.55;1786546;79;22078;-84
2021/11/03 10:37:23;;;;;;;;;;;;;;;11.77;73.42;97300.52;1769427;79;26123;-85
2021/11/03 10:40:05;;;;;;;;;;;;;;;11.81;73.23;97307.12;1770355;79;24543;-84
2021/11/03 10:42:34;;;;;;;;;;;;;;;11.85;73.09;97294.07;1747734;80;20179;-84
2021/11/03 10:45:11;;;;;;;;;;;;;;;11.89;72.92;97295.42;1785897;79;24728;-84
2021/11/03 10:47:37;;;;;;;;;;;;;;;11.95;72.83;97287.48;1751524;80;21906;-84
2021/11/03 10:50:39;;;;;;;;;;;;;;;12.05;72.75;97283.05;1786012;79;27016;-88
2021/11/03 10:52:58;;;;;;;;;;;;;;;12.10;72.67;97290.83;1749288;80;24497;-84
2021/11/03 10:55:29;;;;;;;;;;;;;;;12.11;72.49;97274.58;1782475;79;20280;-84
2021/11/03 10:58:02;;;;;;;;;;;;;;;12.10;72.31;97273.78;1782495;79;24734;-84
2021/11/03 11:00:31;;;;;;;;;;;;;;;12.07;72.15;97271.42;1719660;80;22128;-85
2021/11/03 11:03:02;;;;;;;;;;;;;;;12.03;71.96;97274.48;1779075;79;25996;-89
2021/11/03 11:05:29;;;;;;;;;;;;;;;11.99;71.83;97271.82;1784727;79;24415;-86
2021/11/03 11:08:09;;;;;;;;;;;;;;;11.95;71.69;97265.19;1769801;79;20510;-88
2021/11/03 11:10:43;;;;;;;;;;;;;;;11.91;71.57;97263.35;1715908;82;24830;-84
2021/11/03 11:13:20;;;;;;;;;;;;;;;11.90;71.37;97268.25;1686732;82;22276;-88
2021/11/03 11:15:47;;;;;;;;;;;;;;;11.88;71.28;97255.79;1784353;79;25954;-88
2021/11/03 11:18:18;;;;;;;;;;;;;;;11.87;71.14;97254.61;1750231;80;24525;-88
2021/11/03 11:20:46;;;;;;;;;;;;;;;11.89;71.05;97256.10;1785219;79;20152;-88
2021/11/03 11:23:20;;;;;;;;;;;;;;;11.90;70.96;97251.20;1768180;79;24705;-88
2021/11/03 11:25:47;;;;;;;;;;;;;;;11.93;70.88;97248.31;1748467;80;22025;-84
2021/11/03 11:28:32;;;;;;;;;;;;;;;11.94;70.85;97249.14;1772997;79;26018;-88
2021/11/03 11:31:02;;;;;;;;;;;;;;;11.95;70.75;97256.02;1780234;79;24510;-88
2021/11/03 11:33:30;;;;;;;;;;;;;;;11.98;70.68;97250.02;1742653;80;20239;-88
2021/11/03 11:36:02;;;;;;;;;;;;;;;11.97;70.57;97250.98;1767551;79;24909;-88
2021/11/03 11:38:30;;;;;;;;;;;;;;;11.99;70.48;97242.50;1781289;79;22043;-88
2021/11/03 11:41:10;;;;;;;;;;;;;;;12.00;70.40;97233.63;1781617;79;26200;-86
2021/11/03 11:43:37;;;;;;;;;;;;;;;12.04;70.31;97232.88;1780026;79;25174;-88
2021/11/03 11:46:05;;;;;;;;;;;;;;;12.12;70.26;97232.48;1780541;79;20200;-88
2021/11/03 11:48:39;;;;;;;;;;;;;;;12.17;70.21;97222.85;1767540;80;25526;-87
2021/11/03 11:51:21;;;;;;;;;;;;;;;12.24;70.12;97216.54;1748799;80;22164;-87
2021/11/03 11:53:48;;;;;;;;;;;;;;;12.31;70.03;97225.48;1778429;79;26001;-88
2021/11/03 11:56:18;;;;;;;;;;;;;;;12.36;69.92;97221.92;1779958;79;24448;-83
2021/11/03 11:58:45;;;;;;;;;;;;;;;12.38;69.84;97220.00;1731328;82;20275;-83
2021/11/03 12:01:16;;;;;;;;;;;;;;;12.41;69.72;97213.95;1718344;82;24834;-85
2021/11/03 12:03:47;;;;;;;;;;;;;;;12.46;69.65;97221.38;1745170;81;22811;-85
2021/11/03 12:06:13;;;;;;;;;;;;;;;12.52;69.58;97224.72;1741239;81;25507;-85
2021/11/03 12:08:47;;;;;;;;;;;;;;;12.58;69.55;97228.06;1741293;81;25346;-85
2021/11/03 12:11:14;;;;;;;;;;;;;;;12.62;69.52;97228.58;1723242;82;20311;-85
2021/11/03 12:13:42;;;;;;;;;;;;;;;12.63;69.43;97232.86;1718077;82;24767;-88
2021/11/03 12:16:10;;;;;;;;;;;;;;;12.63;69.35;97239.42;1743199;81;21997;-87
2021/11/03 12:18:38;;;;;;;;;;;;;;;12.61;69.20;97243.98;1743731;81;26163;-87
2021/11/03 12:21:05;;;;;;;;;;;;;;;12.58;69.09;97243.81;1711107;82;24377;-87
2021/11/03 12:23:40;;;;;;;;;;;;;;;12.52;68.98;97245.23;1741894;80;20174;-84
2021/11/03 12:26:23;;;;;;;;;;;;;;;12.51;68.92;97246.68;1742063;80;24938;-85
2021/11/03 12:28:50;;;;;;;;;;;;;;;12.54;68.87;97250.34;1741857;81;21391;-86
2021/11/03 12:31:18;;;;;;;;;;;;;;;12.59;68.81;97241.53;1742351;81;25937;-86
2021/11/03 12:34:04;;;;;;;;;;;;;;;12.60;68.74;97236.59;1741805;81;25588;-85
2021/11/03 12:36:31;;;;;;;;;;;;;;;12.66;68.67;97229.44;1741805;81;20327;-88
2021/11/03 12:38:59;;;;;;;;;;;;;;;12.72;68.63;97224.08;1741951;81;24844;-86
2021/11/03 12:41:30;;;;;;;;;;;;;;;12.77;68.59;97218.72;1742434;81;22854;-85
2021/11/03 12:43:59;;;;;;;;;;;;;;;12.85;68.56;97219.29;1742591;81;26613;-88
2021/11/03 12:46:25;;;;;;;;;;;;;;;12.91;68.48;97214.27;1729924;81;24598;-84
2021/11/03 12:48:55;;;;;;;;;;;;;;;12.98;68.43;97203.47;1741746;81;20518;-84
2021/11/03 12:51:25;;;;;;;;;;;;;;;13.05;68.37;97217.31;1741391;81;24747;-83
2021/11/03 12:53:54;;;;;;;;;;;;;;;13.09;68.30;97223.42;1741694;81;22960;-83
2021/11/03 12:56:22;;;;;;;;;;;;;;;13.16;68.25;97217.93;1729908;81;26975;-83